»·PEaware :: N473LK KSFO-KEUG

N473LK :: KSFO-KEUG

FLIGHT INFORMATION

Flight Status: Arrived
Operator: Privately registered:
United States
More flights under this callsign
Pilot: Liam K. (12562)
Aircraft: BOEING 737-800
(B738)
More flights by this aircraft type
Origin: KSFO San Francisco Intl
United States
Destination: KEUG Mahlon Sweet
United States
More flights between these airports :: More routes between these airports
Route: +SNTNA2 GRTFL EUG
File this flight plan on PilotEdge
Remarks: PBN / A1B1C1D1S1S2 DOF / 190109 REG / N806SB EET / KZSE0033 PER / C RMK / TCAS SIMBRIEF
Altitude:
(Current/Filed)
34,000ft
Speed:
(Current/Filed)
439kts
Departed: 09-Jan-19 12:32 PM
Arrived: 09-Jan-19 01:39 PM
Distance/Time
Traveled:
392nm/1:07
Distance/Time
To Go:
Arrived

Flight Plot

Page will automatically refresh every two minutes.

Flight plan parsing failed; only flown route is shown


Map Options




Map Legend


Flown Route
Filed Route
Departure Airport
Arrival Airport
Navaid (VOR, NDB)
Fix

Horizontal Profiles

Position Reports

Time Latitude Longitude Heading Altitude Ground
Speed
09-Jan-19 12:08 37.619825 -122.383848 211 31ft 0kts
09-Jan-19 12:09 37.619825 -122.383848 211 31ft 0kts
09-Jan-19 12:10 37.619825 -122.383848 211 31ft 0kts
09-Jan-19 12:11 37.619825 -122.383848 211 31ft 0kts
09-Jan-19 12:12 37.619825 -122.383848 211 31ft 0kts
09-Jan-19 12:13 37.619825 -122.383848 211 31ft 0kts
09-Jan-19 12:14 37.619825 -122.383848 211 31ft 0kts
09-Jan-19 12:15 37.619825 -122.383848 211 31ft 0kts
09-Jan-19 12:16 37.619825 -122.383848 211 31ft 0kts
09-Jan-19 12:17 37.619825 -122.383848 211 31ft 0kts
09-Jan-19 12:18 37.619825 -122.383848 211 31ft 0kts
09-Jan-19 12:19 37.619825 -122.383848 211 31ft 0kts
09-Jan-19 12:20 37.619825 -122.383848 211 31ft 0kts
09-Jan-19 12:21 37.619825 -122.383848 211 31ft 0kts
09-Jan-19 12:22 37.619825 -122.383848 211 31ft 0kts
09-Jan-19 12:23 37.619825 -122.383848 211 31ft 0kts
09-Jan-19 12:24 37.619787 -122.383886 223 31ft 2kts
09-Jan-19 12:25 37.619711 -122.382226 119 31ft 15kts
09-Jan-19 12:26 37.617011 -122.374665 117 17ft 33kts
09-Jan-19 12:27 37.611774 -122.363370 118 8ft 38kts
09-Jan-19 12:28 37.610791 -122.359263 32 8ft 0kts
09-Jan-19 12:29 37.610791 -122.359263 32 8ft 0kts
09-Jan-19 12:30 37.612241 -122.359773 290 8ft 0kts
09-Jan-19 12:31 37.624079 -122.385194 316 378ft 187kts
09-Jan-19 12:32 37.661576 -122.452005 310 2589ft 271kts
09-Jan-19 12:33 37.718490 -122.512556 342 5765ft 289kts
09-Jan-19 12:34 37.798825 -122.515586 36 9458ft 310kts
09-Jan-19 12:35 37.854219 -122.427931 29 12217ft 354kts
09-Jan-19 12:36 37.949430 -122.389736 15 15574ft 373kts
09-Jan-19 12:37 38.050449 -122.350464 15 18675ft 395kts
09-Jan-19 12:38 38.154829 -122.309351 15 20090ft 406kts
09-Jan-19 12:39 38.264465 -122.266109 15 22886ft 425kts
09-Jan-19 12:40 38.380166 -122.235763 349 25376ft 433kts
09-Jan-19 12:41 38.500511 -122.255906 346 27743ft 449kts
09-Jan-19 12:42 38.625740 -122.277398 346 30092ft 461kts
09-Jan-19 12:43 38.751094 -122.298886 346 32664ft 458kts
09-Jan-19 12:44 38.877989 -122.320744 346 34088ft 473kts
09-Jan-19 12:45 39.012584 -122.343846 346 34069ft 497kts
09-Jan-19 12:46 39.148130 -122.367089 345 34054ft 495kts
09-Jan-19 12:47 39.284604 -122.390531 346 34059ft 495kts
09-Jan-19 12:48 39.420797 -122.413931 346 34075ft 496kts
09-Jan-19 12:49 39.556691 -122.437280 346 34069ft 495kts
09-Jan-19 12:50 39.692925 -122.460694 346 34035ft 496kts
09-Jan-19 12:51 39.829374 -122.484157 346 34034ft 496kts
09-Jan-19 12:52 39.965215 -122.507515 346 34039ft 495kts
09-Jan-19 12:53 40.100647 -122.530786 346 34042ft 495kts
09-Jan-19 12:54 40.235996 -122.554073 346 34058ft 496kts
09-Jan-19 12:55 40.372445 -122.577520 346 34049ft 497kts
09-Jan-19 12:56 40.508549 -122.600947 346 34052ft 497kts
09-Jan-19 12:57 40.644896 -122.624408 346 34051ft 496kts
09-Jan-19 12:58 40.781558 -122.647900 346 34051ft 495kts
09-Jan-19 12:59 40.917656 -122.671252 345 34063ft 495kts
09-Jan-19 13:00 41.053141 -122.694575 346 34022ft 490kts
09-Jan-19 13:01 41.182424 -122.716812 346 33962ft 485kts
09-Jan-19 13:02 41.316261 -122.739846 346 33963ft 486kts
09-Jan-19 13:03 41.449364 -122.762757 347 33964ft 486kts
09-Jan-19 13:04 41.583151 -122.785782 347 32435ft 488kts
09-Jan-19 13:05 41.717474 -122.808916 347 30482ft 492kts
09-Jan-19 13:06 41.852821 -122.832214 347 28539ft 496kts
09-Jan-19 13:07 41.988996 -122.855664 347 26609ft 500kts
09-Jan-19 13:08 42.125825 -122.879251 348 24677ft 504kts
09-Jan-19 13:09 42.264911 -122.903145 348 23916ft 508kts
09-Jan-19 13:10 42.404535 -122.927243 348 22176ft 508kts
09-Jan-19 13:11 42.544592 -122.951348 348 20687ft 510kts
09-Jan-19 13:12 42.682934 -122.975040 348 19571ft 465kts
09-Jan-19 13:14 42.802801 -122.995798 348 18034ft 442kts
09-Jan-19 13:15 42.924724 -123.016781 348 16075ft 443kts
09-Jan-19 13:16 43.047761 -123.038023 347 14125ft 449kts
09-Jan-19 13:17 43.161998 -123.057513 346 12055ft 377kts
09-Jan-19 13:18 43.264746 -123.075390 347 11696ft 379kts
09-Jan-19 13:19 43.367107 -123.093025 348 9890ft 358kts
09-Jan-19 13:20 43.467407 -123.110314 348 10063ft 366kts
09-Jan-19 13:21 43.568105 -123.127643 348 10060ft 365kts
09-Jan-19 13:22 43.668229 -123.144888 348 9836ft 363kts
09-Jan-19 13:23 43.763235 -123.161200 349 8289ft 318kts
09-Jan-19 13:24 43.847968 -123.171566 13 8060ft 316kts
09-Jan-19 13:25 43.932436 -123.138556 15 8048ft 317kts
09-Jan-19 13:26 44.017071 -123.105128 15 8050ft 316kts
09-Jan-19 13:27 44.100935 -123.071828 15 8050ft 316kts
09-Jan-19 13:28 44.187049 -123.048887 5 6879ft 319kts
09-Jan-19 13:29 44.271547 -123.035644 5 6025ft 278kts
09-Jan-19 13:30 44.347570 -123.024424 357 5510ft 284kts
09-Jan-19 13:31 44.384486 -123.103878 275 4035ft 246kts
09-Jan-19 13:32 44.392858 -123.192138 264 4027ft 243kts
09-Jan-19 13:32 44.353966 -123.230233 168 4055ft 216kts
09-Jan-19 13:34 44.291662 -123.222171 176 3398ft 163kts
09-Jan-19 13:35 44.250861 -123.220970 178 2614ft 146kts
09-Jan-19 13:36 44.209824 -123.220285 179 1834ft 148kts
09-Jan-19 13:36 44.175593 -123.219761 179 1172ft 147kts
09-Jan-19 13:37 44.137958 -123.219202 179 453ft 129kts
09-Jan-19 13:39 44.116179 -123.218559 122 368ft 6kts
09-Jan-19 13:39 44.116128 -123.218249 79 369ft 0kts
09-Jan-19 13:40 44.118981 -123.215550 39 370ft 13kts

Navigation Log

Ident Type
Flight plan parsing failed, navigation log unavailable